Time,TemperatureF,DewpointF,PressureIn,WindDirection,WindDirectionDegrees,WindSpeedMPH,WindSpeedGustMPH,Humidity,HourlyPrecipIn,Conditions,Clouds,dailyrainin,SoftwareType,DateUTC
2013-03-08 00:05:00,30.0,15.8,30.33,North,-999,0.0,0.0,55,0.00,,,-99.99,FreeWX 2.04,2013-03-08 05:05:00,
2013-03-08 00:15:00,29.8,15.6,30.33,North,-999,0.0,0.0,55,0.00,,,-99.99,FreeWX 2.04,2013-03-08 05:15:00,
2013-03-08 00:25:00,29.5,15.3,30.33,North,-999,0.0,0.0,55,0.00,,,-99.99,FreeWX 2.04,2013-03-08 05:25:00,
2013-03-08 00:35:00,29.3,15.1,30.33,North,-999,0.0,0.0,55,0.00,,,-99.99,FreeWX 2.04,2013-03-08 05:35:00,
2013-03-08 00:45:00,29.1,15.4,30.33,North,-999,0.0,0.0,56,0.00,,,-99.99,FreeWX 2.04,2013-03-08 05:45:00,
2013-03-08 00:55:00,29.1,15.4,30.33,North,-999,0.0,0.0,56,0.00,,,-99.99,FreeWX 2.04,2013-03-08 05:55:00,
2013-03-08 01:05:00,28.9,15.3,30.33,North,-999,0.0,0.0,56,0.00,,,-99.99,FreeWX 2.04,2013-03-08 06:05:00,
2013-03-08 01:15:00,28.8,15.1,30.33,North,-999,0.0,0.0,56,0.00,,,-99.99,FreeWX 2.04,2013-03-08 06:15:00,
2013-03-08 01:25:00,28.6,14.9,30.33,North,-999,0.0,0.0,56,0.00,,,-99.99,FreeWX 2.04,2013-03-08 06:25:00,
2013-03-08 01:35:00,28.2,14.5,30.33,North,-999,0.0,0.0,56,0.00,,,-99.99,FreeWX 2.04,2013-03-08 06:35:00,
2013-03-08 01:45:00,28.2,14.9,30.33,North,-999,0.0,0.0,57,0.00,,,-99.99,FreeWX 2.04,2013-03-08 06:45:00,
2013-03-08 01:55:00,28.0,14.7,30.33,North,-999,0.0,0.0,57,0.00,,,-99.99,FreeWX 2.04,2013-03-08 06:55:00,
2013-03-08 02:05:00,28.0,14.7,30.33,North,-999,0.0,0.0,57,0.00,,,-99.99,FreeWX 2.04,2013-03-08 07:05:00,
2013-03-08 02:15:00,27.9,15.1,30.33,North,-999,0.0,0.0,58,0.00,,,-99.99,FreeWX 2.04,2013-03-08 07:15:00,
2013-03-08 02:25:00,27.7,14.9,30.33,North,-999,0.0,0.0,58,0.00,,,-99.99,FreeWX 2.04,2013-03-08 07:25:00,
2013-03-08 02:35:00,27.7,15.3,30.33,North,-999,0.0,0.0,59,0.00,,,-99.99,FreeWX 2.04,2013-03-08 07:35:00,
2013-03-08 02:45:00,27.3,15.6,30.33,North,-999,0.0,0.0,61,0.00,,,-99.99,FreeWX 2.04,2013-03-08 07:45:00,
2013-03-08 02:55:00,27.1,15.4,30.33,North,-999,0.0,0.0,61,0.00,,,-99.99,FreeWX 2.04,2013-03-08 07:55:00,
2013-03-08 03:05:00,27.1,15.4,30.33,North,-999,0.0,0.0,61,0.00,,,-99.99,FreeWX 2.04,2013-03-08 08:05:00,
2013-03-08 03:15:00,27.1,15.1,30.33,North,-999,0.0,0.0,60,0.00,,,-99.99,FreeWX 2.04,2013-03-08 08:15:00,
2013-03-08 03:25:00,27.0,14.9,30.33,North,-999,0.0,0.0,60,0.00,,,-99.99,FreeWX 2.04,2013-03-08 08:25:00,
2013-03-08 03:35:00,26.8,15.1,30.33,North,-999,0.0,0.0,61,0.00,,,-99.99,FreeWX 2.04,2013-03-08 08:35:00,
2013-03-08 03:45:00,26.6,14.9,30.33,North,-999,0.0,0.0,61,0.00,,,-99.99,FreeWX 2.04,2013-03-08 08:45:00,
2013-03-08 03:55:00,26.6,14.9,30.33,North,-999,0.0,0.0,61,0.00,,,-99.99,FreeWX 2.04,2013-03-08 08:55:00,
2013-03-08 04:05:00,26.4,14.9,30.33,North,-999,0.0,0.0,61,0.00,,,-99.99,FreeWX 2.04,2013-03-08 09:05:00,
2013-03-08 04:15:00,26.4,14.9,30.33,North,-999,0.0,0.0,61,0.00,,,-99.99,FreeWX 2.04,2013-03-08 09:15:00,
2013-03-08 04:25:00,26.4,14.9,30.33,North,-999,0.0,0.0,61,0.00,,,-99.99,FreeWX 2.04,2013-03-08 09:25:00,
2013-03-08 04:35:00,26.2,14.7,30.33,North,-999,0.0,0.0,61,0.00,,,-99.99,FreeWX 2.04,2013-03-08 09:35:00,
2013-03-08 04:45:00,26.2,15.1,30.33,North,-999,0.0,0.0,62,0.00,,,-99.99,FreeWX 2.04,2013-03-08 09:45:00,
2013-03-08 04:55:00,26.1,14.9,30.33,North,-999,0.0,0.0,62,0.00,,,-99.99,FreeWX 2.04,2013-03-08 09:55:00,
2013-03-08 05:05:00,25.9,14.7,30.33,North,-999,0.0,0.0,62,0.00,,,-99.99,FreeWX 2.04,2013-03-08 10:05:00,
2013-03-08 05:15:00,25.7,14.5,30.33,North,-999,0.0,0.0,62,0.00,,,-99.99,FreeWX 2.04,2013-03-08 10:15:00,
2013-03-08 05:25:00,25.5,14.4,30.36,North,-999,0.0,0.0,62,0.00,,,-99.99,FreeWX 2.04,2013-03-08 10:25:00,
2013-03-08 05:35:00,25.5,14.4,30.36,North,-999,0.0,0.0,62,0.00,,,-99.99,FreeWX 2.04,2013-03-08 10:35:00,
2013-03-08 05:45:00,25.5,14.4,30.36,North,-999,0.0,0.0,62,0.00,,,-99.99,FreeWX 2.04,2013-03-08 10:45:00,
2013-03-08 05:55:00,25.3,14.2,30.36,North,-999,0.0,0.0,62,0.00,,,-99.99,FreeWX 2.04,2013-03-08 10:55:00,
2013-03-08 06:05:00,25.0,13.8,30.36,North,-999,0.0,0.0,62,0.00,,,-99.99,FreeWX 2.04,2013-03-08 11:05:00,
2013-03-08 06:15:00,24.8,13.6,30.36,North,-999,0.0,0.0,62,0.00,,,-99.99,FreeWX 2.04,2013-03-08 11:15:00,
2013-03-08 06:25:00,24.8,13.6,30.36,North,-999,0.0,0.0,62,0.00,,,-99.99,FreeWX 2.04,2013-03-08 11:25:00,
2013-03-08 06:35:00,24.8,13.6,30.36,North,-999,0.0,0.0,62,0.00,,,-99.99,FreeWX 2.04,2013-03-08 11:35:00,
2013-03-08 06:45:00,24.8,13.6,30.36,North,-999,0.0,0.0,62,0.00,,,-99.99,FreeWX 2.04,2013-03-08 11:45:00,
2013-03-08 06:55:00,24.6,13.5,30.39,North,-999,0.0,0.0,62,0.00,,,-99.99,FreeWX 2.04,2013-03-08 11:55:00,
2013-03-08 07:05:00,25.0,14.2,30.39,North,-999,0.0,0.0,63,0.00,,,-99.99,FreeWX 2.04,2013-03-08 12:05:00,
2013-03-08 07:15:00,25.3,14.5,30.39,North,-999,0.0,0.0,63,0.00,,,-99.99,FreeWX 2.04,2013-03-08 12:15:00,
2013-03-08 07:25:00,25.9,15.1,30.39,North,-999,0.0,0.0,63,0.00,,,-99.99,FreeWX 2.04,2013-03-08 12:25:00,
2013-03-08 07:35:00,26.2,15.4,30.41,North,-999,0.0,0.0,63,0.00,,,-99.99,FreeWX 2.04,2013-03-08 12:35:00,
2013-03-08 07:45:00,26.8,16.0,30.41,North,-999,0.0,0.0,63,0.00,,,-99.99,FreeWX 2.04,2013-03-08 12:45:00,
2013-03-08 07:55:00,27.3,16.7,30.41,North,-999,0.0,0.0,64,0.00,,,-99.99,FreeWX 2.04,2013-03-08 12:55:00,
2013-03-08 08:05:00,27.9,17.2,30.41,North,-999,0.0,0.0,64,0.00,,,-99.99,FreeWX 2.04,2013-03-08 13:05:00,
2013-03-08 08:16:00,28.6,18.0,30.41,North,-999,0.0,0.0,64,0.00,,,-99.99,FreeWX 2.04,2013-03-08 13:16:00,
2013-03-08 08:26:00,29.1,18.5,30.41,North,-999,0.0,0.0,64,0.00,,,-99.99,FreeWX 2.04,2013-03-08 13:26:00,
2013-03-08 08:36:00,29.7,19.0,30.41,North,-999,0.0,0.0,64,0.00,,,-99.99,FreeWX 2.04,2013-03-08 13:36:00,
2013-03-08 08:46:00,30.4,19.8,30.41,North,-999,0.0,0.0,64,0.00,,,-99.99,FreeWX 2.04,2013-03-08 13:46:00,
2013-03-08 08:56:00,31.1,20.7,30.41,North,-999,0.0,0.0,65,0.00,,,-99.99,FreeWX 2.04,2013-03-08 13:56:00,
2013-03-08 09:06:00,31.5,20.7,30.41,North,-999,0.0,0.0,64,0.00,,,-99.99,FreeWX 2.04,2013-03-08 14:06:00,
2013-03-08 09:16:00,32.5,22.1,30.41,South,177,1.0,4.9,65,0.00,,,-99.99,FreeWX 2.04,2013-03-08 14:16:00,
2013-03-08 09:26:00,33.8,23.0,30.41,SSW,195,3.0,7.4,64,0.00,,,-99.99,FreeWX 2.04,2013-03-08 14:26:00,
2013-03-08 09:36:00,35.1,21.7,30.41,South,173,3.0,5.8,58,0.00,,,-99.99,FreeWX 2.04,2013-03-08 14:36:00,
2013-03-08 09:46:00,36.1,19.8,30.41,NW,315,4.0,7.8,51,0.00,,,-99.99,FreeWX 2.04,2013-03-08 14:46:00,
2013-03-08 09:56:00,36.1,14.2,30.41,SSW,203,6.0,9.6,40,0.00,,,-99.99,FreeWX 2.04,2013-03-08 14:56:00,
2013-03-08 10:06:00,36.9,13.6,30.41,West,263,6.0,10.5,38,0.00,,,-99.99,FreeWX 2.04,2013-03-08 15:06:00,
2013-03-08 10:16:00,36.9,10.4,30.41,West,272,5.0,12.5,33,0.00,,,-99.99,FreeWX 2.04,2013-03-08 15:16:00,
2013-03-08 10:26:00,37.0,8.6,30.41,South,191,6.0,9.2,30,0.00,,,-99.99,FreeWX 2.04,2013-03-08 15:26:00,
2013-03-08 10:36:00,40.6,13.1,30.41,NNW,346,5.0,8.7,32,0.00,,,-99.99,FreeWX 2.04,2013-03-08 15:36:00,
2013-03-08 10:46:00,42.4,11.7,30.41,NNW,334,6.0,10.1,28,0.00,,,-99.99,FreeWX 2.04,2013-03-08 15:46:00,
2013-03-08 10:56:00,44.1,13.1,30.41,NNW,329,6.0,11.2,28,0.00,,,-99.99,FreeWX 2.04,2013-03-08 15:56:00,
2013-03-08 11:06:00,44.4,10.8,30.41,NNW,334,5.0,8.3,25,0.00,,,-99.99,FreeWX 2.04,2013-03-08 16:06:00,
2013-03-08 11:16:00,40.5,8.2,30.41,South,185,4.0,6.3,26,0.00,,,-99.99,FreeWX 2.04,2013-03-08 16:16:00,
2013-03-08 11:26:00,39.6,10.0,30.41,SE,144,4.0,6.7,29,0.00,,,-99.99,FreeWX 2.04,2013-03-08 16:26:00,
2013-03-08 11:36:00,38.5,9.0,30.41,SSE,166,4.0,6.3,29,0.00,,,-99.99,FreeWX 2.04,2013-03-08 16:36:00,
2013-03-08 11:46:00,43.2,13.1,30.41,NNW,344,3.0,5.8,29,0.00,,,-99.99,FreeWX 2.04,2013-03-08 16:46:00,
2013-03-08 11:56:00,44.2,10.8,30.41,North,0,3.0,6.9,25,0.00,,,-99.99,FreeWX 2.04,2013-03-08 16:56:00,
2013-03-08 12:06:00,42.3,9.0,30.39,SSW,195,4.0,8.7,25,0.00,,,-99.99,FreeWX 2.04,2013-03-08 17:06:00,
2013-03-08 12:16:00,42.3,9.0,30.39,SSE,147,3.0,6.3,25,0.00,,,-99.99,FreeWX 2.04,2013-03-08 17:16:00,
2013-03-08 12:26:00,42.1,7.0,30.39,SE,136,3.0,5.8,23,0.00,,,-99.99,FreeWX 2.04,2013-03-08 17:26:00,
2013-03-08 12:36:00,44.1,10.6,30.39,ESE,118,3.0,6.7,25,0.00,,,-99.99,FreeWX 2.04,2013-03-08 17:36:00,
2013-03-08 12:46:00,43.2,7.9,30.39,SSW,192,5.0,9.2,23,0.00,,,-99.99,FreeWX 2.04,2013-03-08 17:46:00,
2013-03-08 12:56:00,45.7,9.0,30.39,WNW,289,4.0,7.8,22,0.00,,,-99.99,FreeWX 2.04,2013-03-08 17:56:00,
2013-03-08 13:06:00,46.9,10.0,30.39,NNW,338,4.0,8.7,22,0.00,,,-99.99,FreeWX 2.04,2013-03-08 18:06:00,
2013-03-08 13:16:00,44.6,8.1,30.36,SE,146,2.0,6.7,22,0.00,,,-99.99,FreeWX 2.04,2013-03-08 18:16:00,
2013-03-08 13:26:00,47.5,9.5,30.36,East,82,3.0,6.9,21,0.00,,,-99.99,FreeWX 2.04,2013-03-08 18:26:00,
2013-03-08 13:36:00,48.0,10.0,30.36,SSE,149,3.0,5.8,21,0.00,,,-99.99,FreeWX 2.04,2013-03-08 18:36:00,
2013-03-08 13:46:00,50.0,11.7,30.36,NNE,19,3.0,5.4,21,0.00,,,-99.99,FreeWX 2.04,2013-03-08 18:46:00,
2013-03-08 13:56:00,49.1,10.9,30.36,East,95,4.0,5.8,21,0.00,,,-99.99,FreeWX 2.04,2013-03-08 18:56:00,
2013-03-08 14:06:00,48.4,10.2,30.36,SSE,147,4.0,6.7,21,0.00,,,-99.99,FreeWX 2.04,2013-03-08 19:06:00,
2013-03-08 14:16:00,49.8,11.5,30.36,North,353,4.0,7.8,21,0.00,,,-99.99,FreeWX 2.04,2013-03-08 19:16:00,
2013-03-08 14:26:00,48.9,10.8,30.36,NNW,340,5.0,8.7,21,0.00,,,-99.99,FreeWX 2.04,2013-03-08 19:26:00,
2013-03-08 14:36:00,48.9,10.8,30.36,East,95,4.0,7.4,21,0.00,,,-99.99,FreeWX 2.04,2013-03-08 19:36:00,
2013-03-08 14:46:00,50.2,11.8,30.36,ENE,68,3.0,6.3,21,0.00,,,-99.99,FreeWX 2.04,2013-03-08 19:46:00,
2013-03-08 14:56:00,49.6,11.3,30.36,South,191,3.0,6.3,21,0.00,,,-99.99,FreeWX 2.04,2013-03-08 19:56:00,
2013-03-08 15:06:00,48.0,10.0,30.36,South,169,5.0,8.7,21,0.00,,,-99.99,FreeWX 2.04,2013-03-08 20:06:00,
2013-03-08 15:16:00,50.2,11.8,30.36,ENE,70,3.0,5.4,21,0.00,,,-99.99,FreeWX 2.04,2013-03-08 20:16:00,
2013-03-08 15:26:00,49.6,11.3,30.36,SSE,163,2.0,6.7,21,0.00,,,-99.99,FreeWX 2.04,2013-03-08 20:26:00,
2013-03-08 15:36:00,50.2,11.8,30.36,North,7,4.0,7.4,21,0.00,,,-99.99,FreeWX 2.04,2013-03-08 20:36:00,
2013-03-08 15:46:00,49.6,11.3,30.36,SW,233,3.0,5.4,21,0.00,,,-99.99,FreeWX 2.04,2013-03-08 20:46:00,
2013-03-08 15:56:00,48.7,10.6,30.36,SSE,159,4.0,7.4,21,0.00,,,-99.99,FreeWX 2.04,2013-03-08 20:56:00,
2013-03-08 16:06:00,48.9,10.8,30.36,SSE,167,3.0,5.8,21,0.00,,,-99.99,FreeWX 2.04,2013-03-08 21:06:00,
2013-03-08 16:16:00,48.9,10.8,30.36,NNW,335,3.0,5.8,21,0.00,,,-99.99,FreeWX 2.04,2013-03-08 21:16:00,
2013-03-08 16:26:00,49.3,10.9,30.36,North,349,2.0,4.9,21,0.00,,,-99.99,FreeWX 2.04,2013-03-08 21:26:00,
2013-03-08 16:36:00,48.6,10.4,30.36,NNE,17,2.0,5.4,21,0.00,,,-99.99,FreeWX 2.04,2013-03-08 21:36:00,
2013-03-08 16:46:00,47.5,9.5,30.33,SSE,160,2.0,5.4,21,0.00,,,-99.99,FreeWX 2.04,2013-03-08 21:46:00,
2013-03-08 16:56:00,46.9,10.0,30.33,SSE,167,3.0,6.9,22,0.00,,,-99.99,FreeWX 2.04,2013-03-08 21:56:00,
2013-03-08 17:06:00,46.0,9.3,30.33,South,180,4.0,6.9,22,0.00,,,-99.99,FreeWX 2.04,2013-03-08 22:06:00,
2013-03-08 17:16:00,45.5,9.0,30.33,South,188,4.0,5.8,22,0.00,,,-99.99,FreeWX 2.04,2013-03-08 22:16:00,
2013-03-08 17:26:00,45.3,8.8,30.33,South,191,4.0,6.9,22,0.00,,,-99.99,FreeWX 2.04,2013-03-08 22:26:00,
2013-03-08 17:36:00,45.1,8.6,30.33,NW,323,4.0,6.9,22,0.00,,,-99.99,FreeWX 2.04,2013-03-08 22:36:00,
2013-03-08 17:47:00,45.0,8.4,30.33,NNW,344,3.0,6.3,22,0.00,,,-99.99,FreeWX 2.04,2013-03-08 22:47:00,
2013-03-08 17:57:00,44.2,7.9,30.33,NNW,341,5.0,7.8,22,0.00,,,-99.99,FreeWX 2.04,2013-03-08 22:57:00,
2013-03-08 18:07:00,44.2,7.9,30.33,NW,309,3.0,6.3,22,0.00,,,-99.99,FreeWX 2.04,2013-03-08 23:07:00,
2013-03-08 18:17:00,43.5,8.2,30.33,WNW,296,2.0,4.9,23,0.00,,,-99.99,FreeWX 2.04,2013-03-08 23:17:00,
2013-03-08 18:27:00,42.8,7.5,30.33,NNW,346,2.0,4.9,23,0.00,,,-99.99,FreeWX 2.04,2013-03-08 23:27:00,
2013-03-08 18:37:00,42.3,7.2,30.33,North,-999,0.0,3.1,23,0.00,,,-99.99,FreeWX 2.04,2013-03-08 23:37:00,
2013-03-08 18:47:00,41.4,6.4,30.33,North,-999,0.0,0.0,23,0.00,,,-99.99,FreeWX 2.04,2013-03-08 23:47:00,
2013-03-08 18:57:00,40.6,5.7,30.33,North,-999,0.0,0.0,23,0.00,,,-99.99,FreeWX 2.04,2013-03-08 23:57:00,
2013-03-08 19:07:00,39.9,5.2,30.33,North,-999,0.0,0.0,23,0.00,,,-99.99,FreeWX 2.04,2013-03-09 00:07:00,
2013-03-08 19:17:00,39.4,4.6,30.33,North,-999,0.0,0.0,23,0.00,,,-99.99,FreeWX 2.04,2013-03-09 00:17:00,
2013-03-08 19:27:00,38.7,4.1,30.33,North,-999,0.0,0.0,23,0.00,,,-99.99,FreeWX 2.04,2013-03-09 00:27:00,
2013-03-08 19:37:00,37.6,4.1,30.33,North,-999,0.0,0.0,24,0.00,,,-99.99,FreeWX 2.04,2013-03-09 00:37:00,
2013-03-08 19:47:00,36.7,5.0,30.33,North,351,2.0,4.0,26,0.00,,,-99.99,FreeWX 2.04,2013-03-09 00:47:00,
2013-03-08 19:57:00,36.5,7.3,30.33,North,351,1.0,3.6,29,0.00,,,-99.99,FreeWX 2.04,2013-03-09 00:57:00,
2013-03-08 20:07:00,35.6,7.3,30.33,North,-999,0.0,0.0,30,0.00,,,-99.99,FreeWX 2.04,2013-03-09 01:07:00,
2013-03-08 20:17:00,35.1,6.8,30.33,NNE,14,1.0,4.5,30,0.00,,,-99.99,FreeWX 2.04,2013-03-09 01:17:00,
2013-03-08 20:27:00,34.7,6.4,30.33,SE,130,2.0,4.0,30,0.00,,,-99.99,FreeWX 2.04,2013-03-09 01:27:00,
2013-03-08 20:37:00,34.3,6.8,30.36,North,-999,0.0,3.1,31,0.00,,,-99.99,FreeWX 2.04,2013-03-09 01:37:00,
2013-03-08 20:47:00,33.8,7.2,30.36,North,-999,0.0,0.0,32,0.00,,,-99.99,FreeWX 2.04,2013-03-09 01:47:00,
2013-03-08 20:57:00,33.3,7.3,30.36,North,-999,0.0,0.0,33,0.00,,,-99.99,FreeWX 2.04,2013-03-09 01:57:00,
2013-03-08 21:07:00,32.7,8.8,30.36,North,-999,0.0,0.0,36,0.00,,,-99.99,FreeWX 2.04,2013-03-09 02:07:00,
2013-03-08 21:17:00,32.5,9.1,30.36,North,-999,0.0,0.0,37,0.00,,,-99.99,FreeWX 2.04,2013-03-09 02:17:00,
2013-03-08 21:27:00,32.2,9.5,30.36,North,-999,0.0,0.0,38,0.00,,,-99.99,FreeWX 2.04,2013-03-09 02:27:00,
2013-03-08 21:37:00,32.0,10.9,30.36,North,-999,0.0,0.0,41,0.00,,,-99.99,FreeWX 2.04,2013-03-09 02:37:00,
2013-03-08 21:47:00,32.0,10.4,30.36,North,-999,0.0,0.0,40,0.00,,,-99.99,FreeWX 2.04,2013-03-09 02:47:00,
2013-03-08 21:57:00,31.5,10.0,30.36,North,-999,0.0,0.0,40,0.00,,,-99.99,FreeWX 2.04,2013-03-09 02:57:00,
2013-03-08 22:07:00,30.9,10.0,30.36,North,-999,0.0,0.0,41,0.00,,,-99.99,FreeWX 2.04,2013-03-09 03:07:00,
2013-03-08 22:17:00,30.7,9.9,30.36,North,-999,0.0,0.0,41,0.00,,,-99.99,FreeWX 2.04,2013-03-09 03:17:00,
2013-03-08 22:27:00,30.7,10.4,30.36,North,-999,0.0,0.0,42,0.00,,,-99.99,FreeWX 2.04,2013-03-09 03:27:00,
2013-03-08 22:37:00,30.6,10.2,30.36,North,-999,0.0,0.0,42,0.00,,,-99.99,FreeWX 2.04,2013-03-09 03:37:00,
2013-03-08 22:47:00,30.4,10.0,30.36,North,-999,0.0,0.0,42,0.00,,,-99.99,FreeWX 2.04,2013-03-09 03:47:00,
2013-03-08 22:57:00,30.0,10.8,30.36,North,-999,0.0,0.0,44,0.00,,,-99.99,FreeWX 2.04,2013-03-09 03:57:00,
2013-03-08 23:07:00,29.7,10.4,30.33,North,-999,0.0,0.0,44,0.00,,,-99.99,FreeWX 2.04,2013-03-09 04:07:00,
2013-03-08 23:17:00,29.7,10.9,30.33,North,-999,0.0,0.0,45,0.00,,,-99.99,FreeWX 2.04,2013-03-09 04:17:00,
2013-03-08 23:27:00,29.7,11.5,30.33,North,-999,0.0,0.0,46,0.00,,,-99.99,FreeWX 2.04,2013-03-09 04:27:00,
2013-03-08 23:37:00,29.3,11.1,30.33,North,-999,0.0,0.0,46,0.00,,,-99.99,FreeWX 2.04,2013-03-09 04:37:00,
2013-03-08 23:47:00,28.8,10.6,30.33,North,-999,0.0,0.0,46,0.00,,,-99.99,FreeWX 2.04,2013-03-09 04:47:00,
2013-03-08 23:57:00,28.6,10.4,30.33,North,-999,0.0,0.0,46,0.00,,,-99.99,FreeWX 2.04,2013-03-09 04:57:00,